createdAt,value
2023-03-13T00:02:22.084Z,33.10
2023-03-13T00:04:48.479Z,35.40
2023-03-13T00:07:16.036Z,36.43
2023-03-13T00:09:42.455Z,32.33
2023-03-13T00:12:09.181Z,34.33
2023-03-13T00:14:35.554Z,29.40
2023-03-13T00:17:03.062Z,34.13
2023-03-13T00:19:29.610Z,30.53
2023-03-13T00:21:56.073Z,35.83
2023-03-13T00:24:22.432Z,27.47
2023-03-13T00:26:48.883Z,27.00
2023-03-13T00:29:15.557Z,38.23
2023-03-13T00:31:42.316Z,37.67
2023-03-13T00:34:11.341Z,35.17
2023-03-13T00:36:37.899Z,28.90
2023-03-13T00:39:05.929Z,33.57
2023-03-13T00:41:33.062Z,31.90
2023-03-13T00:43:59.741Z,27.90
2023-03-13T00:46:28.132Z,23.63
2023-03-13T00:48:54.614Z,34.37
2023-03-13T00:51:22.143Z,36.27
2023-03-13T00:53:48.801Z,23.20
2023-03-13T00:56:17.044Z,32.60
2023-03-13T00:58:44.752Z,33.83
2023-03-13T01:01:12.313Z,25.73
2023-03-13T01:03:39.908Z,28.83
2023-03-13T01:06:08.774Z,27.93
2023-03-13T01:08:35.202Z,32.63
2023-03-13T01:11:06.641Z,34.53
2023-03-13T01:13:33.445Z,32.90
2023-03-13T01:16:18.292Z,32.47
2023-03-13T01:18:47.512Z,35.40
2023-03-13T01:21:14.945Z,36.50
2023-03-13T01:23:41.304Z,33.80
2023-03-13T01:26:08.528Z,29.10
2023-03-13T01:28:35.608Z,29.00
2023-03-13T01:31:19.801Z,27.87
2023-03-13T01:33:47.886Z,24.77
2023-03-13T01:36:14.848Z,29.33
2023-03-13T01:38:41.238Z,33.73
2023-03-13T01:41:09.298Z,37.17
2023-03-13T01:43:36.752Z,37.03
2023-03-13T01:46:06.249Z,32.70
2023-03-13T01:49:00.858Z,30.33
2023-03-13T01:51:54.163Z,26.03
2023-03-13T01:54:24.338Z,29.83
2023-03-13T01:57:27.360Z,30.00
2023-03-13T02:00:08.100Z,30.13
2023-03-13T02:02:35.624Z,26.83
2023-03-13T02:05:03.621Z,35.67
2023-03-13T02:07:37.694Z,29.30
2023-03-13T02:10:04.542Z,26.70
2023-03-13T02:12:34.267Z,22.43
2023-03-13T02:15:03.887Z,34.23
2023-03-13T02:17:30.565Z,22.50
2023-03-13T02:19:56.957Z,23.70
2023-03-13T02:22:31.078Z,30.50
2023-03-13T02:25:25.801Z,32.43
2023-03-13T02:27:55.414Z,29.90
2023-03-13T02:30:22.294Z,30.80
2023-03-13T02:32:48.969Z,21.90
2023-03-13T02:35:18.990Z,29.77
2023-03-13T02:37:48.997Z,24.87
2023-03-13T02:40:18.559Z,26.53
2023-03-13T02:42:45.937Z,26.73
2023-03-13T02:45:17.186Z,26.93
2023-03-13T02:47:43.776Z,31.83
2023-03-13T02:50:11.288Z,27.67
2023-03-13T02:52:42.039Z,22.37
2023-03-13T02:55:12.808Z,29.30
2023-03-13T02:57:39.200Z,27.30
2023-03-13T03:00:07.213Z,27.30
2023-03-13T03:02:33.615Z,28.13
2023-03-13T03:04:59.970Z,20.40
2023-03-13T03:07:26.370Z,25.37
2023-03-13T03:09:52.771Z,34.40
2023-03-13T03:12:19.158Z,31.83
2023-03-13T03:14:45.553Z,25.13
2023-03-13T03:17:11.938Z,25.40
2023-03-13T03:19:38.297Z,27.23
2023-03-13T03:22:04.905Z,27.40
2023-03-13T03:24:31.345Z,22.87
2023-03-13T03:26:57.774Z,29.27
2023-03-13T03:29:24.209Z,20.87
2023-03-13T03:31:50.710Z,28.83
2023-03-13T03:34:17.113Z,26.70
2023-03-13T03:36:43.513Z,22.17
2023-03-13T03:39:09.880Z,19.60
2023-03-13T03:41:37.369Z,36.63
2023-03-13T03:44:04.990Z,22.97
2023-03-13T03:46:31.365Z,24.37
2023-03-13T03:48:57.874Z,31.90
2023-03-13T03:51:24.283Z,26.27
2023-03-13T03:53:50.978Z,30.37
2023-03-13T03:56:17.359Z,23.37
2023-03-13T03:58:43.755Z,27.83
2023-03-13T04:01:10.129Z,33.27
2023-03-13T04:03:36.611Z,22.47
2023-03-13T04:06:03.009Z,26.37
2023-03-13T04:08:29.697Z,26.93
2023-03-13T04:10:56.068Z,28.70
2023-03-13T04:13:22.470Z,18.50
2023-03-13T04:15:48.915Z,20.17
2023-03-13T04:18:16.532Z,22.60
2023-03-13T04:20:43.106Z,23.97
2023-03-13T04:23:09.483Z,28.50
2023-03-13T04:25:37.161Z,24.03
2023-03-13T04:28:03.651Z,26.87
2023-03-13T04:30:30.068Z,19.50
2023-03-13T04:32:56.547Z,22.07
2023-03-13T04:35:23.022Z,18.73
2023-03-13T04:37:49.495Z,19.93
2023-03-13T04:40:15.895Z,22.90
2023-03-13T04:42:42.290Z,21.53
2023-03-13T04:45:11.790Z,20.93
2023-03-13T04:47:38.160Z,25.80
2023-03-13T04:50:04.883Z,22.03
2023-03-13T04:52:31.288Z,19.03
2023-03-13T04:54:57.716Z,22.73
2023-03-13T04:57:24.129Z,16.83
2023-03-13T04:59:50.492Z,13.30
2023-03-13T05:02:16.885Z,24.17
2023-03-13T05:04:43.349Z,18.90
2023-03-13T05:07:09.773Z,17.50
2023-03-13T05:09:36.185Z,13.77
2023-03-13T05:12:02.548Z,15.70
2023-03-13T05:14:28.926Z,14.73
2023-03-13T05:16:55.300Z,10.50
2023-03-13T05:19:21.689Z,17.73
2023-03-13T05:21:48.100Z,17.00
2023-03-13T05:24:14.484Z,13.40
2023-03-13T05:26:40.838Z,14.20
2023-03-13T05:29:07.239Z,11.07
2023-03-13T05:31:33.637Z,14.23
2023-03-13T05:34:00.109Z,7.70
2023-03-13T05:36:26.490Z,16.17
2023-03-13T05:38:52.919Z,8.10
2023-03-13T05:41:19.321Z,12.70
2023-03-13T05:43:45.717Z,8.27
2023-03-13T05:46:12.113Z,10.30
2023-03-13T05:48:38.525Z,8.83
2023-03-13T05:51:04.989Z,10.10
2023-03-13T05:53:31.358Z,6.67
2023-03-13T05:55:57.724Z,11.33
2023-03-13T05:58:24.175Z,9.97
2023-03-13T06:00:50.537Z,9.37
2023-03-13T06:03:16.919Z,9.57
2023-03-13T06:05:43.296Z,8.10
2023-03-13T06:08:09.678Z,8.07
2023-03-13T06:10:36.067Z,7.60
2023-03-13T06:13:17.144Z,6.50
2023-03-13T06:15:54.314Z,9.60
2023-03-13T06:18:20.925Z,7.33
2023-03-13T06:20:48.640Z,8.53
2023-03-13T06:23:15.296Z,7.23
2023-03-13T06:25:41.659Z,10.13
2023-03-13T06:28:08.100Z,11.33
2023-03-13T06:30:34.484Z,9.70
2023-03-13T06:33:01.030Z,7.83
2023-03-13T06:35:27.505Z,7.57
2023-03-13T06:37:54.124Z,7.63
2023-03-13T06:40:20.659Z,7.17
2023-03-13T06:42:47.149Z,7.93
2023-03-13T06:45:13.695Z,8.00
2023-03-13T06:47:40.117Z,10.67
2023-03-13T06:50:07.139Z,7.53
2023-03-13T06:52:43.099Z,11.03
2023-03-13T06:55:10.381Z,10.27
2023-03-13T06:57:36.810Z,9.83
2023-03-13T07:00:06.022Z,11.03
2023-03-13T07:02:32.526Z,11.20
2023-03-13T07:04:58.954Z,11.77
2023-03-13T07:07:31.872Z,10.97
2023-03-13T07:09:58.955Z,9.97
2023-03-13T07:12:25.375Z,13.43
2023-03-13T07:14:51.788Z,9.57
2023-03-13T07:17:18.232Z,11.40
2023-03-13T07:19:44.707Z,11.13
2023-03-13T07:22:11.103Z,9.73
2023-03-13T07:24:37.504Z,9.43
2023-03-13T07:27:07.664Z,10.53
2023-03-13T07:29:34.535Z,10.77
2023-03-13T07:32:01.023Z,12.93
2023-03-13T07:34:27.486Z,10.13
2023-03-13T07:36:53.841Z,9.33
2023-03-13T07:39:20.235Z,9.10
2023-03-13T07:41:46.622Z,7.77
2023-03-13T07:44:13.093Z,8.63
2023-03-13T07:46:39.505Z,8.80
2023-03-13T07:49:06.797Z,8.43
2023-03-13T07:51:42.912Z,9.57
2023-03-13T07:54:10.562Z,9.07
2023-03-13T07:56:37.034Z,8.37
2023-03-13T07:59:03.444Z,8.73
2023-03-13T08:01:31.111Z,7.97
2023-03-13T08:04:01.196Z,9.90
2023-03-13T08:06:32.750Z,7.57
2023-03-13T08:09:00.246Z,6.33
2023-03-13T08:11:28.441Z,5.87
2023-03-13T08:13:56.134Z,8.33
2023-03-13T08:16:24.761Z,7.63
2023-03-13T08:18:54.136Z,10.80
2023-03-13T08:21:23.371Z,9.40
2023-03-13T08:23:53.185Z,12.23
2023-03-13T08:26:21.267Z,11.07
2023-03-13T08:28:52.493Z,8.17
2023-03-13T08:31:22.278Z,7.03
2023-03-13T08:33:49.060Z,10.77
2023-03-13T08:36:18.407Z,9.10
2023-03-13T08:38:46.520Z,9.97
2023-03-13T08:41:18.726Z,8.17
2023-03-13T08:43:45.723Z,9.53
2023-03-13T08:46:12.852Z,11.63
2023-03-13T08:48:39.389Z,8.23
2023-03-13T08:51:08.072Z,11.40
2023-03-13T08:53:35.563Z,8.27
2023-03-13T08:56:02.207Z,9.03
2023-03-13T08:58:28.830Z,6.43
2023-03-13T09:00:55.554Z,8.40
2023-03-13T09:03:22.113Z,6.77
2023-03-13T09:05:55.961Z,6.83
2023-03-13T09:08:22.991Z,8.40
2023-03-13T09:10:58.048Z,6.93
2023-03-13T09:13:25.769Z,7.20
2023-03-13T09:16:03.852Z,8.70
2023-03-13T09:18:30.558Z,5.73
2023-03-13T09:20:57.060Z,6.80
2023-03-13T09:23:24.187Z,6.53
2023-03-13T09:25:55.996Z,9.20
2023-03-13T09:28:23.437Z,7.37
2023-03-13T09:30:50.150Z,8.90
2023-03-13T09:33:17.904Z,10.43
2023-03-13T09:35:47.183Z,13.07
2023-03-13T09:38:13.627Z,6.97
2023-03-13T09:40:56.638Z,9.87
2023-03-13T09:43:36.008Z,7.73
2023-03-13T09:46:05.198Z,8.00
2023-03-13T09:48:34.207Z,5.30
2023-03-13T09:51:05.763Z,8.03
2023-03-13T09:53:54.881Z,9.00
2023-03-13T09:56:25.013Z,6.13
2023-03-13T09:58:58.812Z,15.67
2023-03-13T10:01:29.509Z,7.27
2023-03-13T10:04:04.773Z,11.40
2023-03-13T10:06:35.470Z,5.47
2023-03-13T10:09:01.984Z,8.50
2023-03-13T10:11:41.555Z,7.87
2023-03-13T10:14:45.124Z,9.07
2023-03-13T10:17:22.400Z,7.23
2023-03-13T10:19:55.908Z,4.70
2023-03-13T10:22:26.573Z,5.83
2023-03-13T10:24:59.813Z,6.90
2023-03-13T10:27:27.134Z,3.33
2023-03-13T10:29:53.524Z,4.70
2023-03-13T10:32:21.234Z,5.00
2023-03-13T10:34:58.435Z,11.87
2023-03-13T10:37:33.709Z,3.47
2023-03-13T10:40:24.967Z,6.73
2023-03-13T10:42:53.203Z,4.00
2023-03-13T10:45:25.005Z,3.30
2023-03-13T10:47:56.097Z,5.60
2023-03-13T10:50:26.064Z,8.10
2023-03-13T10:52:53.189Z,3.47
2023-03-13T10:55:22.022Z,6.07
2023-03-13T10:58:02.823Z,4.23
2023-03-13T11:00:31.110Z,6.77
2023-03-13T11:02:57.750Z,5.40
2023-03-13T11:05:31.674Z,4.73
2023-03-13T11:07:58.110Z,4.17
2023-03-13T11:10:26.286Z,3.43
2023-03-13T11:12:54.555Z,6.10
2023-03-13T11:15:31.289Z,3.10
2023-03-13T11:18:03.221Z,3.40
2023-03-13T11:20:37.315Z,6.43
2023-03-13T11:23:27.990Z,2.67
2023-03-13T11:26:05.892Z,4.40
2023-03-13T11:28:56.030Z,4.20
2023-03-13T11:31:29.981Z,3.80
2023-03-13T11:34:05.540Z,4.07
2023-03-13T11:36:53.464Z,3.00
2023-03-13T11:39:41.452Z,4.40
2023-03-13T11:42:07.791Z,4.20
2023-03-13T11:44:58.517Z,3.63
2023-03-13T11:47:53.311Z,5.20
2023-03-13T11:50:36.502Z,4.20
2023-03-13T11:53:18.711Z,4.67
2023-03-13T11:55:57.202Z,2.70
2023-03-13T11:58:40.844Z,7.33
2023-03-13T12:01:18.647Z,6.23
2023-03-13T12:04:05.563Z,4.20
2023-03-13T12:06:42.268Z,3.67
2023-03-13T12:09:37.536Z,5.20
2023-03-13T12:12:25.399Z,5.63
2023-03-13T12:15:21.137Z,4.90
2023-03-13T12:17:51.928Z,3.57
2023-03-13T12:20:43.612Z,3.40
2023-03-13T12:23:23.607Z,5.83
2023-03-13T12:25:55.812Z,2.37
2023-03-13T12:28:28.311Z,4.07
2023-03-13T12:31:19.276Z,4.97
2023-03-13T12:33:52.453Z,6.50
2023-03-13T12:36:31.234Z,3.70
2023-03-13T12:39:23.771Z,5.50
2023-03-13T12:42:01.414Z,5.23
2023-03-13T12:44:27.902Z,6.17
2023-03-13T12:47:09.830Z,3.90
2023-03-13T12:50:10.562Z,5.23
2023-03-13T12:52:58.635Z,5.17
2023-03-13T12:55:45.059Z,3.90
2023-03-13T12:58:21.108Z,3.40
2023-03-13T13:00:48.690Z,3.60
2023-03-13T13:03:22.601Z,3.50
2023-03-13T13:06:04.372Z,3.27
2023-03-13T13:09:01.501Z,3.53
2023-03-13T13:11:34.606Z,3.70
2023-03-13T13:14:19.146Z,3.93
2023-03-13T13:16:50.377Z,3.23
2023-03-13T13:19:23.057Z,3.57
2023-03-13T13:22:27.136Z,7.93
2023-03-13T13:24:55.996Z,4.67
2023-03-13T13:27:31.521Z,4.63
2023-03-13T13:29:59.614Z,3.13
2023-03-13T13:32:40.354Z,4.70
2023-03-13T13:35:19.595Z,7.83
2023-03-13T13:37:48.987Z,5.27
2023-03-13T13:40:16.025Z,4.17
2023-03-13T13:42:59.841Z,4.53
2023-03-13T13:45:29.150Z,4.03
2023-03-13T13:48:33.817Z,2.87
2023-03-13T13:51:10.983Z,2.80
2023-03-13T13:53:46.838Z,5.47
2023-03-13T13:56:28.655Z,4.33
2023-03-13T13:59:24.673Z,3.57
2023-03-13T14:02:13.726Z,5.37
2023-03-13T14:04:52.494Z,4.47
2023-03-13T14:07:37.048Z,3.83
2023-03-13T14:10:19.348Z,3.03
2023-03-13T14:12:57.385Z,2.90
2023-03-13T14:15:29.777Z,3.70
2023-03-13T14:18:01.996Z,2.37
2023-03-13T14:20:35.566Z,1.83
2023-03-13T14:23:04.653Z,2.60
2023-03-13T14:26:09.136Z,5.03
2023-03-13T14:28:35.522Z,2.67
2023-03-13T14:31:01.979Z,1.87
2023-03-13T14:33:28.661Z,2.07
2023-03-13T14:35:55.553Z,4.40
2023-03-13T14:38:24.160Z,3.00
2023-03-13T14:40:51.595Z,4.63
2023-03-13T14:43:41.218Z,2.53
2023-03-13T14:46:16.617Z,2.73
2023-03-13T14:48:43.145Z,2.80
2023-03-13T14:51:15.582Z,2.07
2023-03-13T14:53:54.583Z,3.37
2023-03-13T14:56:21.299Z,5.03
2023-03-13T14:58:48.761Z,5.13
2023-03-13T15:01:24.827Z,3.83
2023-03-13T15:03:52.543Z,5.87
2023-03-13T15:06:20.753Z,2.77
2023-03-13T15:09:10.117Z,3.73
2023-03-13T15:11:41.799Z,5.53
2023-03-13T15:14:32.092Z,2.97
2023-03-13T15:16:58.498Z,5.43
2023-03-13T15:19:24.849Z,3.63
2023-03-13T15:21:52.119Z,3.30
2023-03-13T15:24:18.689Z,4.50
2023-03-13T15:26:47.221Z,1.73
2023-03-13T15:29:18.191Z,5.20
2023-03-13T15:31:44.774Z,4.97
2023-03-13T15:34:14.233Z,3.07
2023-03-13T15:36:41.708Z,3.33
2023-03-13T15:39:22.421Z,3.37
2023-03-13T15:41:48.883Z,3.43
2023-03-13T15:44:15.302Z,1.90
2023-03-13T15:46:41.744Z,2.93
2023-03-13T15:49:12.866Z,2.73
2023-03-13T15:51:39.561Z,4.37
2023-03-13T15:54:06.006Z,2.83
2023-03-13T15:56:36.573Z,4.00
2023-03-13T15:59:10.065Z,3.23
2023-03-13T16:01:36.730Z,4.70
2023-03-13T16:04:03.936Z,4.80
2023-03-13T16:06:33.343Z,3.57
2023-03-13T16:09:01.366Z,4.33
2023-03-13T16:11:28.767Z,2.70
2023-03-13T16:13:56.003Z,3.23
2023-03-13T16:16:25.403Z,2.67
2023-03-13T16:18:53.147Z,2.07
2023-03-13T16:21:22.965Z,4.93
2023-03-13T16:23:49.480Z,3.57
2023-03-13T16:26:23.802Z,3.40
2023-03-13T16:28:50.844Z,2.23
2023-03-13T16:31:23.051Z,5.43
2023-03-13T16:33:53.294Z,2.50
2023-03-13T16:36:22.876Z,3.13
2023-03-13T16:38:49.595Z,2.97
2023-03-13T16:41:18.075Z,5.60
2023-03-13T16:43:45.270Z,3.17
2023-03-13T16:46:20.377Z,5.23
2023-03-13T16:48:48.215Z,6.57
2023-03-13T16:51:25.701Z,4.93
2023-03-13T16:53:53.706Z,4.03
2023-03-13T16:56:22.375Z,5.43
2023-03-13T16:58:49.109Z,1.87
2023-03-13T17:01:16.701Z,3.93
2023-03-13T17:03:43.816Z,1.63
2023-03-13T17:06:16.160Z,4.87
2023-03-13T17:08:43.953Z,4.77
2023-03-13T17:11:17.990Z,5.40
2023-03-13T17:13:45.699Z,5.93
2023-03-13T17:16:15.325Z,10.03
2023-03-13T17:18:42.544Z,2.87
2023-03-13T17:21:17.756Z,1.87
2023-03-13T17:23:44.787Z,4.80
2023-03-13T17:26:15.693Z,5.43
2023-03-13T17:28:43.245Z,4.83
2023-03-13T17:31:10.937Z,5.53
2023-03-13T17:33:37.947Z,5.17
2023-03-13T17:36:15.081Z,2.77
2023-03-13T17:38:41.618Z,4.10
2023-03-13T17:41:11.658Z,3.00
2023-03-13T17:43:38.748Z,2.53
2023-03-13T17:46:20.424Z,6.40
2023-03-13T17:48:48.733Z,4.67
2023-03-13T17:51:18.529Z,6.57
2023-03-13T17:53:45.146Z,8.40
2023-03-13T17:56:20.530Z,5.30
2023-03-13T17:58:48.665Z,5.03
2023-03-13T18:01:15.376Z,6.90
2023-03-13T18:03:42.250Z,7.90
2023-03-13T18:06:18.874Z,3.67
2023-03-13T18:08:45.557Z,5.30
2023-03-13T18:11:12.197Z,4.07
2023-03-13T18:13:39.257Z,3.70
2023-03-13T18:16:42.835Z,4.50
2023-03-13T18:19:20.489Z,5.37
2023-03-13T18:21:48.975Z,5.30
2023-03-13T18:24:16.986Z,4.43
2023-03-13T18:26:45.198Z,5.27
2023-03-13T18:29:17.830Z,6.27
2023-03-13T18:31:44.339Z,4.40
2023-03-13T18:34:11.613Z,4.20
2023-03-13T18:36:38.758Z,3.20
2023-03-13T18:39:08.665Z,4.13
2023-03-13T18:41:35.062Z,7.70
2023-03-13T18:44:01.872Z,6.37
2023-03-13T18:46:31.369Z,5.20
2023-03-13T18:48:58.076Z,4.17
2023-03-13T18:51:25.745Z,8.57
2023-03-13T18:53:53.367Z,3.63
2023-03-13T18:56:28.733Z,6.00
2023-03-13T18:58:55.834Z,2.63
2023-03-13T19:01:24.396Z,3.17
2023-03-13T19:03:51.182Z,5.97
2023-03-13T19:06:35.025Z,6.60
2023-03-13T19:09:41.777Z,9.70
2023-03-13T19:12:03.752Z,4.87
2023-03-13T19:14:30.281Z,3.87
2023-03-13T19:16:57.689Z,5.63
2023-03-13T19:19:25.182Z,5.40
2023-03-13T19:21:56.738Z,7.10
2023-03-13T19:24:26.487Z,5.13
2023-03-13T19:26:58.473Z,7.07
2023-03-13T19:29:38.001Z,6.10
2023-03-13T19:32:07.110Z,4.30
2023-03-13T19:34:33.646Z,9.00
2023-03-13T19:37:00.143Z,6.90
2023-03-13T19:39:26.728Z,8.57
2023-03-13T19:41:53.705Z,4.33
2023-03-13T19:44:20.753Z,9.47
2023-03-13T19:46:47.793Z,4.50
2023-03-13T19:49:16.376Z,15.27
2023-03-13T19:51:43.049Z,9.70
2023-03-13T19:54:10.736Z,16.00
2023-03-13T19:56:39.324Z,11.63
2023-03-13T19:59:20.266Z,17.30
2023-03-13T20:01:47.245Z,6.50
2023-03-13T20:04:13.670Z,5.70
2023-03-13T20:06:41.306Z,13.33
2023-03-13T20:09:13.370Z,7.60
2023-03-13T20:11:39.751Z,6.60
2023-03-13T20:14:06.296Z,7.37
2023-03-13T20:16:34.930Z,5.97
2023-03-13T20:19:01.881Z,4.43
2023-03-13T20:21:33.797Z,10.57
2023-03-13T20:24:00.651Z,5.53
2023-03-13T20:26:28.234Z,6.93
2023-03-13T20:28:55.369Z,11.40
2023-03-13T20:31:24.748Z,10.63
2023-03-13T20:33:51.479Z,7.00
2023-03-13T20:36:19.925Z,8.97
2023-03-13T20:38:47.037Z,8.43
2023-03-13T20:41:13.498Z,5.83
2023-03-13T20:43:40.046Z,7.50
2023-03-13T20:46:09.371Z,4.67
2023-03-13T20:48:38.970Z,8.03
2023-03-13T20:51:06.383Z,4.07
2023-03-13T20:53:35.282Z,5.70
2023-03-13T20:56:02.010Z,4.67
2023-03-13T20:58:28.462Z,5.37
2023-03-13T21:00:58.287Z,6.27
2023-03-13T21:03:24.717Z,4.67
2023-03-13T21:05:51.423Z,3.67
2023-03-13T21:08:18.168Z,8.57
2023-03-13T21:10:44.838Z,5.30
2023-03-13T21:13:11.368Z,10.70
2023-03-13T21:15:38.208Z,8.43
2023-03-13T21:18:04.837Z,8.60
2023-03-13T21:20:31.287Z,6.03
2023-03-13T21:22:57.853Z,4.63
2023-03-13T21:25:24.515Z,7.57
2023-03-13T21:27:50.914Z,5.20
2023-03-13T21:30:19.386Z,7.40
2023-03-13T21:32:46.933Z,4.37
2023-03-13T21:35:14.124Z,3.60
2023-03-13T21:37:40.912Z,6.27
2023-03-13T21:40:08.842Z,3.53
2023-03-13T21:42:36.118Z,7.27
2023-03-13T21:45:04.082Z,5.47
2023-03-13T21:47:31.653Z,4.07
2023-03-13T21:50:00.486Z,4.10
2023-03-13T21:52:27.923Z,4.70
2023-03-13T21:54:54.322Z,6.23
2023-03-13T21:57:20.788Z,5.93
2023-03-13T21:59:47.288Z,4.97
2023-03-13T22:02:14.025Z,4.77
2023-03-13T22:04:40.576Z,5.43
2023-03-13T22:07:06.951Z,6.70
2023-03-13T22:09:33.408Z,6.67
2023-03-13T22:11:59.838Z,3.07
2023-03-13T22:14:27.964Z,5.03
2023-03-13T22:16:54.530Z,4.00
2023-03-13T22:19:20.922Z,3.53
2023-03-13T22:21:47.374Z,7.50
2023-03-13T22:24:13.813Z,9.50
2023-03-13T22:26:40.250Z,10.70
2023-03-13T22:29:06.664Z,11.27
2023-03-13T22:31:33.054Z,5.93
2023-03-13T22:33:59.468Z,5.93
2023-03-13T22:36:25.940Z,6.97
2023-03-13T22:38:52.592Z,12.67
2023-03-13T22:41:19.441Z,8.73
2023-03-13T22:43:45.911Z,9.50
2023-03-13T22:46:12.602Z,7.37
2023-03-13T22:48:39.692Z,5.70
2023-03-13T22:51:11.628Z,6.70
2023-03-13T22:53:39.459Z,4.27
2023-03-13T22:56:06.649Z,6.37
2023-03-13T22:58:33.753Z,8.17
2023-03-13T23:01:00.220Z,6.40
2023-03-13T23:03:26.667Z,6.97
2023-03-13T23:05:53.037Z,7.83
2023-03-13T23:08:19.472Z,10.43
2023-03-13T23:10:47.548Z,8.53
2023-03-13T23:13:16.213Z,5.67
2023-03-13T23:15:58.218Z,8.47
2023-03-13T23:18:26.424Z,7.20
2023-03-13T23:20:53.128Z,6.90
2023-03-13T23:23:19.589Z,6.40
2023-03-13T23:25:46.253Z,5.80
2023-03-13T23:28:12.821Z,6.97
2023-03-13T23:30:39.220Z,8.13
2023-03-13T23:33:06.021Z,4.93
2023-03-13T23:35:32.524Z,6.60
2023-03-13T23:37:58.945Z,6.73
2023-03-13T23:40:25.391Z,7.37
2023-03-13T23:42:51.821Z,6.90
2023-03-13T23:45:19.121Z,7.67
2023-03-13T23:47:45.939Z,6.37
2023-03-13T23:50:13.588Z,9.87
2023-03-13T23:52:40.336Z,10.33
2023-03-13T23:55:07.394Z,10.33
2023-03-13T23:57:33.979Z,8.93
